createdAt,value
2017-12-13T00:00:36.128Z,51.10
2017-12-13T00:03:04.373Z,51.10
2017-12-13T00:05:32.892Z,51.10
2017-12-13T00:08:01.147Z,51.10
2017-12-13T00:10:29.384Z,51.10
2017-12-13T00:12:58.021Z,50.90
2017-12-13T00:15:26.293Z,50.90
2017-12-13T00:17:54.520Z,50.90
2017-12-13T00:20:22.760Z,50.90
2017-12-13T00:22:51.024Z,50.80
2017-12-13T00:25:19.259Z,50.90
2017-12-13T00:27:48.251Z,50.90
2017-12-13T00:30:16.526Z,50.90
2017-12-13T00:32:44.756Z,50.90
2017-12-13T00:35:12.987Z,50.80
2017-12-13T00:37:41.279Z,50.80
2017-12-13T00:40:09.513Z,50.80
2017-12-13T00:42:38.160Z,50.80
2017-12-13T00:45:06.459Z,50.80
2017-12-13T00:47:35.083Z,50.80
2017-12-13T00:50:04.751Z,50.80
2017-12-13T00:52:34.122Z,50.70
2017-12-13T00:55:02.772Z,50.70
2017-12-13T00:57:31.011Z,50.70
2017-12-13T00:59:59.269Z,50.50
2017-12-13T01:02:27.512Z,50.70
2017-12-13T01:04:55.833Z,50.50
2017-12-13T01:07:24.967Z,50.50
2017-12-13T01:09:54.656Z,50.40
2017-12-13T01:12:23.299Z,50.50
2017-12-13T01:14:51.592Z,50.50
2017-12-13T01:17:19.831Z,50.40
2017-12-13T01:19:48.922Z,50.40
2017-12-13T01:22:17.240Z,50.40
2017-12-13T01:24:45.471Z,50.40
2017-12-13T01:27:13.704Z,50.20
2017-12-13T01:29:42.719Z,50.20
2017-12-13T01:32:11.356Z,50.20
2017-12-13T01:34:40.355Z,50.20
2017-12-13T01:37:09.019Z,50.20
2017-12-13T01:39:37.320Z,50.20
2017-12-13T01:42:05.544Z,50.20
2017-12-13T01:44:33.954Z,50.20
2017-12-13T01:47:02.180Z,50.10
2017-12-13T01:49:30.807Z,50.10
2017-12-13T01:51:59.091Z,50.10
2017-12-13T01:54:27.329Z,50.10
2017-12-13T01:56:55.569Z,50.10
2017-12-13T01:59:23.822Z,50.10
2017-12-13T02:01:52.048Z,50.10
2017-12-13T02:04:20.682Z,49.90
2017-12-13T02:06:48.936Z,49.90
2017-12-13T02:09:17.171Z,49.80
2017-12-13T02:11:45.813Z,49.90
2017-12-13T02:14:14.493Z,49.90
2017-12-13T02:16:42.723Z,49.80
2017-12-13T02:19:10.964Z,49.80
2017-12-13T02:21:39.548Z,49.80
2017-12-13T02:24:07.779Z,49.80
2017-12-13T02:26:36.013Z,49.80
2017-12-13T02:29:04.275Z,49.60
2017-12-13T02:31:32.505Z,49.60
2017-12-13T02:34:00.741Z,49.60
2017-12-13T02:36:29.985Z,49.60
2017-12-13T02:38:58.500Z,49.60
2017-12-13T02:41:26.747Z,49.80
2017-12-13T02:43:55.011Z,49.60
2017-12-13T02:46:23.249Z,49.60
2017-12-13T02:48:51.880Z,49.60
2017-12-13T02:51:20.160Z,49.60
2017-12-13T02:53:48.382Z,49.60
2017-12-13T02:56:16.619Z,49.50
2017-12-13T02:58:44.873Z,49.50
2017-12-13T03:01:13.103Z,49.50
2017-12-13T03:03:41.340Z,49.20
2017-12-13T03:06:09.620Z,49.50
2017-12-13T03:08:37.852Z,49.50
2017-12-13T03:11:06.490Z,49.50
2017-12-13T03:13:34.734Z,49.50
2017-12-13T03:16:03.205Z,49.50
2017-12-13T03:18:31.446Z,49.50
2017-12-13T03:21:01.345Z,49.50
2017-12-13T03:23:29.587Z,49.50
2017-12-13T03:25:57.827Z,49.50
2017-12-13T03:28:26.487Z,49.20
2017-12-13T03:30:55.881Z,49.20
2017-12-13T03:33:24.115Z,49.30
2017-12-13T03:35:52.372Z,49.30
2017-12-13T03:38:20.608Z,49.30
2017-12-13T03:40:48.854Z,49.30
2017-12-13T03:43:17.093Z,49.30
2017-12-13T03:45:45.716Z,49.20
2017-12-13T03:48:14.223Z,49.20
2017-12-13T03:50:42.488Z,49.30
2017-12-13T03:53:10.768Z,49.30
2017-12-13T03:55:38.984Z,49.20
2017-12-13T03:58:07.939Z,49.30
2017-12-13T04:00:36.212Z,49.30
2017-12-13T04:03:04.451Z,49.30
2017-12-13T04:05:32.707Z,49.30
2017-12-13T04:08:01.344Z,49.20
2017-12-13T04:10:29.580Z,49.20
2017-12-13T04:12:57.872Z,49.20
2017-12-13T04:15:26.096Z,49.20
2017-12-13T04:17:54.326Z,49.20
2017-12-13T04:20:22.685Z,49.30
2017-12-13T04:22:50.928Z,49.20
2017-12-13T04:25:19.158Z,49.20
2017-12-13T04:27:47.419Z,49.20
2017-12-13T04:30:15.664Z,49.20
2017-12-13T04:32:44.404Z,49.00
2017-12-13T04:35:12.668Z,49.00
2017-12-13T04:37:40.903Z,49.00
2017-12-13T04:40:09.528Z,49.00
2017-12-13T04:42:37.800Z,49.00
2017-12-13T04:45:06.049Z,49.00
2017-12-13T04:47:34.286Z,49.00
2017-12-13T04:50:02.532Z,49.00
2017-12-13T04:52:30.827Z,49.00
2017-12-13T04:54:59.314Z,49.00
2017-12-13T04:57:27.559Z,49.00
2017-12-13T04:59:55.840Z,49.00
2017-12-13T05:02:25.080Z,49.00
2017-12-13T05:04:53.315Z,49.00
2017-12-13T05:07:21.590Z,49.00
2017-12-13T05:09:49.828Z,49.00
2017-12-13T05:12:18.451Z,49.00
2017-12-13T05:14:46.728Z,49.00
2017-12-13T05:17:14.964Z,49.00
2017-12-13T05:19:43.595Z,49.00
2017-12-13T05:22:12.704Z,48.90
2017-12-13T05:24:41.377Z,48.90
2017-12-13T05:27:09.872Z,48.90
2017-12-13T05:29:38.150Z,48.90
2017-12-13T05:32:06.400Z,48.90
2017-12-13T05:34:34.633Z,48.90
2017-12-13T05:37:02.951Z,48.90
2017-12-13T05:39:31.228Z,48.90
2017-12-13T05:41:59.467Z,48.90
2017-12-13T05:44:27.729Z,48.90
2017-12-13T05:46:56.354Z,48.90
2017-12-13T05:49:24.600Z,48.90
2017-12-13T05:51:53.258Z,48.70
2017-12-13T05:54:21.497Z,48.70
2017-12-13T05:56:49.803Z,48.70
2017-12-13T05:59:18.542Z,48.90
2017-12-13T06:01:46.776Z,48.90
2017-12-13T06:04:16.600Z,48.70
2017-12-13T06:06:45.234Z,48.70
2017-12-13T06:09:13.468Z,48.70
2017-12-13T06:11:42.133Z,48.70
2017-12-13T06:14:10.402Z,48.70
2017-12-13T06:16:38.625Z,48.70
2017-12-13T06:19:06.898Z,48.70
2017-12-13T06:21:35.127Z,48.70
2017-12-13T06:24:03.426Z,48.70
2017-12-13T06:26:32.072Z,48.60
2017-12-13T06:29:00.308Z,48.70
2017-12-13T06:31:28.548Z,48.60
2017-12-13T06:33:56.820Z,48.70
2017-12-13T06:36:25.060Z,48.60
2017-12-13T06:38:53.305Z,48.60
2017-12-13T06:41:21.840Z,48.60
2017-12-13T06:43:50.083Z,48.40
2017-12-13T06:46:18.346Z,48.60
2017-12-13T06:48:46.612Z,48.60
2017-12-13T06:51:14.860Z,48.40
2017-12-13T06:53:43.085Z,48.30
2017-12-13T06:56:11.343Z,48.30
2017-12-13T06:58:39.580Z,48.30
2017-12-13T07:01:07.864Z,48.30
2017-12-13T07:03:36.540Z,48.10
2017-12-13T07:06:04.777Z,48.10
2017-12-13T07:08:33.022Z,48.10
2017-12-13T07:11:01.701Z,48.00
2017-12-13T07:13:30.372Z,48.00
2017-12-13T07:15:59.020Z,48.00
2017-12-13T07:18:27.269Z,48.00
2017-12-13T07:20:55.508Z,53.00
2017-12-13T07:23:23.771Z,47.80
2017-12-13T07:25:52.052Z,70.00
2017-12-13T07:28:20.283Z,69.20
2017-12-13T07:30:48.516Z,66.70
2017-12-13T07:33:16.828Z,62.60
2017-12-13T07:35:45.068Z,60.80
2017-12-13T07:38:13.880Z,57.90
2017-12-13T07:40:42.171Z,57.90
2017-12-13T07:43:10.593Z,56.90
2017-12-13T07:45:38.868Z,55.70
2017-12-13T07:48:07.111Z,54.80
2017-12-13T07:50:35.392Z,53.90
2017-12-13T07:53:03.701Z,53.00
2017-12-13T07:55:32.005Z,52.40
2017-12-13T07:58:00.625Z,51.50
2017-12-13T08:00:28.887Z,51.50
2017-12-13T08:02:57.155Z,51.10
2017-12-13T08:05:25.400Z,50.70
2017-12-13T08:07:54.069Z,49.80
2017-12-13T08:10:22.304Z,49.80
2017-12-13T08:12:50.540Z,49.50
2017-12-13T08:15:20.528Z,49.20
2017-12-13T08:17:48.764Z,48.90
2017-12-13T08:20:17.049Z,48.60
2017-12-13T08:22:45.288Z,48.60
2017-12-13T08:25:13.933Z,48.60
2017-12-13T08:27:42.242Z,48.60
2017-12-13T08:30:10.876Z,46.20
2017-12-13T08:32:39.115Z,46.20
2017-12-13T08:35:07.776Z,43.10
2017-12-13T08:37:36.011Z,43.10
2017-12-13T08:40:04.296Z,41.50
2017-12-13T08:42:32.565Z,40.30
2017-12-13T08:45:00.798Z,39.30
2017-12-13T08:47:29.432Z,37.10
2017-12-13T08:49:57.676Z,37.10
2017-12-13T08:52:25.913Z,36.00
2017-12-13T08:54:54.564Z,34.50
2017-12-13T08:57:23.160Z,34.50
2017-12-13T08:59:51.385Z,33.50
2017-12-13T09:02:20.025Z,32.30
2017-12-13T09:04:48.660Z,32.30
2017-12-13T09:07:17.308Z,30.70
2017-12-13T09:09:46.360Z,30.70
2017-12-13T09:12:14.657Z,29.80
2017-12-13T09:14:43.816Z,29.40
2017-12-13T09:17:12.092Z,29.00
2017-12-13T09:19:40.332Z,28.90
2017-12-13T09:22:08.580Z,28.90
2017-12-13T09:24:36.864Z,29.00
2017-12-13T09:27:05.303Z,29.10
2017-12-13T09:29:33.533Z,29.00
2017-12-13T09:32:01.777Z,29.20
2017-12-13T09:34:30.012Z,29.30
2017-12-13T09:36:58.249Z,29.20
2017-12-13T09:39:26.497Z,29.30
2017-12-13T09:41:54.741Z,29.30
2017-12-13T09:44:22.993Z,29.20
2017-12-13T09:46:51.425Z,29.10
2017-12-13T09:49:19.668Z,28.80
2017-12-13T09:51:48.297Z,28.60
2017-12-13T09:54:16.682Z,28.60
2017-12-13T09:56:44.959Z,28.40
2017-12-13T09:59:13.181Z,28.20
2017-12-13T10:01:41.457Z,28.00
2017-12-13T10:04:09.692Z,27.80
2017-12-13T10:06:38.536Z,27.70
2017-12-13T10:09:06.808Z,27.60
2017-12-13T10:11:35.047Z,27.60
2017-12-13T10:14:03.895Z,27.60
2017-12-13T10:16:32.192Z,27.60
2017-12-13T10:19:00.442Z,27.60
2017-12-13T10:21:28.674Z,27.60
2017-12-13T10:23:57.476Z,27.60
2017-12-13T10:26:26.682Z,27.80
2017-12-13T10:28:54.932Z,27.80
2017-12-13T10:31:23.282Z,27.80
2017-12-13T10:33:51.513Z,27.40
2017-12-13T10:36:20.043Z,27.30
2017-12-13T10:38:48.525Z,27.10
2017-12-13T10:41:16.761Z,26.90
2017-12-13T10:43:45.031Z,26.80
2017-12-13T10:46:13.260Z,26.90
2017-12-13T10:48:41.498Z,27.10
2017-12-13T10:51:09.764Z,27.20
2017-12-13T10:53:38.007Z,27.30
2017-12-13T10:56:06.650Z,27.20
2017-12-13T10:58:35.969Z,27.20
2017-12-13T11:01:04.204Z,27.50
2017-12-13T11:03:32.440Z,27.60
2017-12-13T11:06:01.112Z,27.60
2017-12-13T11:08:29.752Z,27.30
2017-12-13T11:10:57.988Z,27.30
2017-12-13T11:13:26.628Z,27.60
2017-12-13T11:15:55.321Z,27.60
2017-12-13T11:18:23.567Z,27.60
2017-12-13T11:20:51.797Z,27.60
2017-12-13T11:23:20.260Z,27.10
2017-12-13T11:25:48.630Z,27.00
2017-12-13T11:28:16.849Z,27.10
2017-12-13T11:30:45.478Z,26.60
2017-12-13T11:33:13.753Z,26.60
2017-12-13T11:35:42.016Z,26.20
2017-12-13T11:38:10.319Z,26.10
2017-12-13T11:40:38.551Z,26.10
2017-12-13T11:43:06.802Z,26.00
2017-12-13T11:45:35.440Z,25.90
2017-12-13T11:48:03.733Z,25.90
2017-12-13T11:50:31.960Z,25.40
2017-12-13T11:53:00.204Z,25.20
2017-12-13T11:55:28.458Z,25.10
2017-12-13T11:57:57.158Z,25.20
2017-12-13T12:00:26.132Z,25.20
2017-12-13T12:02:54.380Z,25.10
2017-12-13T12:05:22.655Z,25.50
2017-12-13T12:07:51.741Z,25.40
2017-12-13T12:10:19.983Z,25.60
2017-12-13T12:12:49.253Z,25.30
2017-12-13T12:15:17.544Z,25.30
2017-12-13T12:17:46.209Z,25.10
2017-12-13T12:20:14.461Z,25.10
2017-12-13T12:22:42.749Z,25.20
2017-12-13T12:25:13.147Z,25.70
2017-12-13T12:27:42.098Z,25.90
2017-12-13T12:30:11.323Z,25.90
2017-12-13T12:32:39.906Z,25.90
2017-12-13T12:35:09.277Z,26.20
2017-12-13T12:37:37.532Z,26.00
2017-12-13T12:40:05.759Z,26.40
2017-12-13T12:42:34.023Z,26.40
2017-12-13T12:45:02.255Z,26.50
2017-12-13T12:47:30.492Z,26.30
2017-12-13T12:49:59.235Z,26.40
2017-12-13T12:52:27.447Z,26.30
2017-12-13T12:54:56.139Z,26.30
2017-12-13T12:57:24.381Z,26.30
2017-12-13T12:59:52.629Z,26.20
2017-12-13T13:02:20.892Z,26.30
2017-12-13T13:04:50.127Z,26.30
2017-12-13T13:07:18.373Z,26.50
2017-12-13T13:09:46.650Z,26.30
2017-12-13T13:12:14.923Z,26.20
2017-12-13T13:14:43.857Z,26.20
2017-12-13T13:17:12.572Z,26.10
2017-12-13T13:19:40.808Z,26.10
2017-12-13T13:22:09.040Z,26.60
2017-12-13T13:24:37.296Z,26.80
2017-12-13T13:27:05.913Z,27.30
2017-12-13T13:29:34.157Z,27.30
2017-12-13T13:32:02.812Z,27.30
2017-12-13T13:34:31.066Z,27.20
2017-12-13T13:36:59.303Z,27.90
2017-12-13T13:39:27.563Z,28.00
2017-12-13T13:41:56.187Z,28.50
2017-12-13T13:44:24.417Z,28.50
2017-12-13T13:46:53.064Z,28.50
2017-12-13T13:49:21.303Z,28.50
2017-12-13T13:51:51.097Z,28.90
2017-12-13T13:54:19.727Z,29.30
2017-12-13T13:56:47.980Z,29.30
2017-12-13T13:59:16.256Z,29.50
2017-12-13T14:01:44.497Z,29.70
2017-12-13T14:04:14.117Z,30.60
2017-12-13T14:06:42.791Z,30.70
2017-12-13T14:09:11.424Z,30.80
2017-12-13T14:11:39.661Z,30.80
2017-12-13T14:14:08.399Z,31.40
2017-12-13T14:16:36.621Z,31.40
2017-12-13T14:19:04.876Z,31.70
2017-12-13T14:21:33.157Z,31.90
2017-12-13T14:24:01.787Z,31.90
2017-12-13T14:26:30.024Z,31.90
2017-12-13T14:28:58.672Z,32.30
2017-12-13T14:31:26.924Z,32.30
2017-12-13T14:33:55.156Z,32.50
2017-12-13T14:36:23.821Z,32.60
2017-12-13T14:38:52.058Z,32.60
2017-12-13T14:41:20.307Z,33.10
2017-12-13T14:43:48.541Z,33.20
2017-12-13T14:46:16.781Z,33.40
2017-12-13T14:48:45.074Z,33.20
2017-12-13T14:51:13.329Z,33.40
2017-12-13T14:53:41.571Z,33.80
2017-12-13T14:56:10.232Z,34.20
2017-12-13T14:58:38.480Z,34.20
2017-12-13T15:01:06.769Z,34.40
2017-12-13T15:03:35.041Z,34.50
2017-12-13T15:06:03.332Z,34.70
2017-12-13T15:08:31.580Z,34.70
2017-12-13T15:10:59.827Z,35.00
2017-12-13T15:13:28.101Z,35.30
2017-12-13T15:15:56.436Z,35.60
2017-12-13T15:18:24.917Z,35.70
2017-12-13T15:20:53.182Z,35.70
2017-12-13T15:23:21.448Z,35.90
2017-12-13T15:25:49.954Z,36.00
2017-12-13T15:28:18.229Z,35.70
2017-12-13T15:30:46.500Z,36.50
2017-12-13T15:33:14.742Z,36.30
2017-12-13T15:35:42.998Z,36.00
2017-12-13T15:38:11.651Z,36.20
2017-12-13T15:40:39.941Z,36.20
2017-12-13T15:43:08.169Z,36.50
2017-12-13T15:45:36.465Z,36.60
2017-12-13T15:48:04.708Z,36.50
2017-12-13T15:50:32.980Z,36.90
2017-12-13T15:53:01.274Z,36.80
2017-12-13T15:55:29.559Z,36.90
2017-12-13T15:57:57.804Z,36.90
2017-12-13T16:00:26.087Z,37.20
2017-12-13T16:02:54.402Z,37.20
2017-12-13T16:05:22.654Z,37.20
2017-12-13T16:07:50.913Z,37.40
2017-12-13T16:10:19.232Z,37.40
2017-12-13T16:12:47.723Z,37.20
2017-12-13T16:15:18.947Z,37.50
2017-12-13T16:17:47.540Z,37.60
2017-12-13T16:20:16.022Z,37.20
2017-12-13T16:22:44.270Z,37.60
2017-12-13T16:25:12.588Z,37.50
2017-12-13T16:27:40.839Z,37.40
2017-12-13T16:30:10.144Z,37.50
2017-12-13T16:32:38.390Z,37.50
2017-12-13T16:35:06.620Z,37.50
2017-12-13T16:37:35.262Z,37.20
2017-12-13T16:40:03.533Z,37.20
2017-12-13T16:42:31.802Z,37.40
2017-12-13T16:45:00.073Z,37.40
2017-12-13T16:47:28.312Z,37.40
2017-12-13T16:49:56.608Z,37.20
2017-12-13T16:52:24.848Z,37.40
2017-12-13T16:54:53.098Z,37.50
2017-12-13T16:57:21.361Z,37.50
2017-12-13T16:59:50.428Z,37.50
2017-12-13T17:02:18.710Z,37.40
2017-12-13T17:04:46.948Z,37.40
2017-12-13T17:07:15.300Z,37.20
2017-12-13T17:09:43.549Z,37.50
2017-12-13T17:12:11.787Z,37.20
2017-12-13T17:14:40.423Z,37.50
2017-12-13T17:17:08.689Z,37.50
2017-12-13T17:19:36.926Z,37.50
2017-12-13T17:22:05.552Z,37.50
2017-12-13T17:24:33.817Z,37.50
2017-12-13T17:27:02.068Z,37.40
2017-12-13T17:29:30.924Z,37.40
2017-12-13T17:31:59.165Z,37.40
2017-12-13T17:34:27.419Z,37.40
2017-12-13T17:36:55.666Z,37.50
2017-12-13T17:39:23.912Z,37.60
2017-12-13T17:41:52.152Z,37.80
2017-12-13T17:44:20.397Z,37.90
2017-12-13T17:46:49.034Z,38.40
2017-12-13T17:49:17.317Z,38.40
2017-12-13T17:51:45.548Z,38.40
2017-12-13T17:54:14.297Z,38.80
2017-12-13T17:56:42.567Z,38.80
2017-12-13T17:59:10.944Z,39.00
2017-12-13T18:01:39.164Z,39.00
2017-12-13T18:04:07.423Z,39.10
2017-12-13T18:06:36.077Z,39.40
2017-12-13T18:09:05.392Z,39.40
2017-12-13T18:11:33.663Z,39.40
2017-12-13T18:14:02.140Z,39.40
2017-12-13T18:16:30.409Z,39.60
2017-12-13T18:18:58.700Z,39.60
2017-12-13T18:21:27.348Z,39.70
2017-12-13T18:23:55.580Z,39.70
2017-12-13T18:26:24.313Z,39.90
2017-12-13T18:28:52.524Z,39.70
2017-12-13T18:31:20.760Z,39.90
2017-12-13T18:33:49.003Z,40.00
2017-12-13T18:36:17.249Z,40.00
2017-12-13T18:38:46.231Z,40.30
2017-12-13T18:41:14.532Z,40.30
2017-12-13T18:43:43.191Z,41.30
2017-12-13T18:46:11.438Z,41.30
2017-12-13T18:48:39.753Z,41.00
2017-12-13T18:51:08.014Z,41.20
2017-12-13T18:53:36.256Z,41.00
2017-12-13T18:56:04.509Z,41.20
2017-12-13T18:58:33.140Z,41.20
2017-12-13T19:01:01.383Z,41.20
2017-12-13T19:03:29.636Z,41.30
2017-12-13T19:05:58.268Z,41.30
2017-12-13T19:08:26.504Z,41.50
2017-12-13T19:10:56.036Z,41.50
2017-12-13T19:13:24.755Z,41.50
2017-12-13T19:15:53.035Z,41.50
2017-12-13T19:18:21.732Z,41.50
2017-12-13T19:20:49.982Z,41.50
2017-12-13T19:23:18.276Z,41.60
2017-12-13T19:25:46.520Z,41.80
2017-12-13T19:28:14.769Z,41.80
2017-12-13T19:30:43.030Z,41.80
2017-12-13T19:33:11.660Z,41.90
2017-12-13T19:35:39.901Z,41.90
2017-12-13T19:38:08.180Z,41.90
2017-12-13T19:40:36.421Z,41.90
2017-12-13T19:46:09.588Z,41.90
2017-12-13T19:48:38.524Z,41.90
2017-12-13T19:51:06.760Z,41.90
2017-12-13T19:53:35.161Z,41.90
2017-12-13T19:56:03.526Z,42.10
2017-12-13T19:58:31.760Z,42.10
2017-12-13T20:01:00.012Z,42.10
2017-12-13T20:03:28.674Z,42.10
2017-12-13T20:05:56.908Z,42.10
2017-12-13T20:08:25.761Z,42.10
2017-12-13T20:10:54.114Z,42.20
2017-12-13T20:13:22.368Z,42.20
2017-12-13T20:15:50.631Z,42.20
2017-12-13T20:18:18.960Z,42.20
2017-12-13T20:20:47.320Z,42.20
2017-12-13T20:23:15.553Z,42.20
2017-12-13T20:25:43.843Z,42.20
2017-12-13T20:28:12.084Z,42.20
2017-12-13T20:30:40.735Z,42.40
2017-12-13T20:33:09.392Z,42.40
2017-12-13T20:35:37.650Z,42.40
2017-12-13T20:38:05.917Z,42.40
2017-12-13T20:40:35.001Z,42.40
2017-12-13T20:43:03.280Z,42.40
2017-12-13T20:45:32.899Z,42.40
2017-12-13T20:48:03.088Z,42.40
2017-12-13T20:50:34.401Z,42.40
2017-12-13T20:53:04.406Z,42.40
2017-12-13T20:55:33.178Z,42.50
2017-12-13T20:58:02.706Z,42.40
2017-12-13T21:00:32.492Z,42.50
2017-12-13T21:03:01.453Z,42.50
2017-12-13T21:05:31.379Z,42.50
2017-12-13T21:08:01.756Z,42.50
2017-12-13T21:10:30.400Z,42.50
2017-12-13T21:13:00.280Z,42.50
2017-12-13T21:15:30.280Z,42.50
2017-12-13T21:18:00.425Z,42.50
2017-12-13T21:20:30.277Z,42.70
2017-12-13T21:23:00.780Z,42.50
2017-12-13T21:25:30.879Z,42.70
2017-12-13T21:28:00.434Z,42.70
2017-12-13T21:30:30.987Z,42.70
2017-12-13T21:33:02.659Z,42.70
2017-12-13T21:35:32.633Z,42.70
2017-12-13T21:38:01.982Z,42.70
2017-12-13T21:40:31.595Z,42.70
2017-12-13T21:43:01.765Z,43.00
2017-12-13T21:45:30.615Z,43.00
2017-12-13T21:48:00.908Z,43.00
2017-12-13T21:50:29.922Z,43.00
2017-12-13T21:52:58.526Z,43.00
2017-12-13T21:55:28.437Z,43.00
2017-12-13T21:57:57.834Z,43.00
2017-12-13T22:00:28.784Z,43.00
2017-12-13T22:02:58.264Z,43.00
2017-12-13T22:05:28.045Z,43.00
2017-12-13T22:07:58.308Z,43.00
2017-12-13T22:10:28.330Z,43.00
2017-12-13T22:12:57.285Z,43.10
2017-12-13T22:15:28.168Z,43.10
2017-12-13T22:17:58.594Z,43.10
2017-12-13T22:20:29.198Z,43.10
2017-12-13T22:22:59.633Z,43.10
2017-12-13T22:25:29.068Z,43.10
2017-12-13T22:27:57.461Z,43.10
2017-12-13T22:30:27.185Z,43.10
2017-12-13T22:32:57.233Z,45.50
2017-12-13T22:35:26.907Z,44.90
2017-12-13T22:37:58.315Z,44.90
2017-12-13T22:40:28.370Z,44.60
2017-12-13T22:42:57.803Z,44.60
2017-12-13T22:45:28.031Z,44.30
2017-12-13T22:47:58.470Z,44.30
2017-12-13T22:50:28.422Z,44.30
2017-12-13T22:52:58.663Z,44.00
2017-12-13T22:55:27.134Z,44.00
2017-12-13T22:57:57.714Z,44.00
2017-12-13T23:00:39.491Z,44.00
2017-12-13T23:03:09.337Z,43.90
2017-12-13T23:05:39.392Z,43.90
2017-12-13T23:08:09.712Z,43.90
2017-12-13T23:10:40.182Z,43.90
2017-12-13T23:13:09.987Z,43.70
2017-12-13T23:15:41.053Z,43.70
2017-12-13T23:18:11.851Z,52.40
2017-12-13T23:20:41.100Z,52.60
2017-12-13T23:23:11.328Z,60.10
2017-12-13T23:25:40.451Z,65.70
2017-12-13T23:28:10.658Z,60.30
2017-12-13T23:30:39.287Z,60.30
2017-12-13T23:33:08.330Z,57.30
2017-12-13T23:35:37.274Z,56.00
2017-12-13T23:38:06.918Z,53.50
2017-12-13T23:40:36.302Z,52.40
2017-12-13T23:43:05.483Z,52.40
2017-12-13T23:45:34.628Z,51.70
2017-12-13T23:48:03.683Z,50.80
2017-12-13T23:50:32.727Z,49.80
2017-12-13T23:53:02.071Z,49.80
2017-12-13T23:55:30.932Z,49.50
2017-12-13T23:57:59.951Z,48.90
